Time;durP1;ratioP1;P1;durP2;ratioP2;P2;SDS_P1;SDS_P2;PMS_P1;PMS_P2;Temp;Humidity;BMP_temperature;BMP_pressure;BME280_temperature;BME280_humidity;BME280_pressure;Samples;Min_cycle;Max_cycle;Signal;HPM_P1;HPM_P2
2023/03/09 00:01:56;;;;;;;9.30;6.90;;;;;;;;;;5078624;28;20467;-73
2023/03/09 00:04:26;;;;;;;11.97;8.03;;;;;;;;;;5079269;28;20448;-73
2023/03/09 00:06:54;;;;;;;12.07;7.20;;;;;;;;;;5078086;28;20460;-73
2023/03/09 00:09:22;;;;;;;14.90;7.20;;;;;;;;;;5079305;28;20590;-72
2023/03/09 00:11:50;;;;;;;9.80;6.77;;;;;;;;;;5064072;28;20481;-73
2023/03/09 00:14:21;;;;;;;15.70;7.57;;;;;;;;;;5059062;28;20524;-73
2023/03/09 00:16:50;;;;;;;14.87;7.50;;;;;;;;;;5057492;28;20484;-73
2023/03/09 00:19:20;;;;;;;12.03;7.47;;;;;;;;;;5057654;28;20763;-74
2023/03/09 00:21:51;;;;;;;10.10;6.90;;;;;;;;;;5058815;28;20788;-73
2023/03/09 00:24:20;;;;;;;12.90;7.93;;;;;;;;;;5057635;28;20812;-73
2023/03/09 00:26:49;;;;;;;13.23;8.07;;;;;;;;;;5056878;28;20539;-72
2023/03/09 00:29:17;;;;;;;12.50;7.33;;;;;;;;;;5057122;28;20892;-72
2023/03/09 00:31:46;;;;;;;8.60;5.60;;;;;;;;;;5055589;28;20492;-72
2023/03/09 00:34:15;;;;;;;8.30;5.63;;;;;;;;;;5057215;28;20795;-72
2023/03/09 00:36:44;;;;;;;9.77;6.50;;;;;;;;;;5058371;28;20461;-73
2023/03/09 00:39:12;;;;;;;14.03;6.67;;;;;;;;;;5057265;28;20462;-72
2023/03/09 00:41:40;;;;;;;11.83;7.13;;;;;;;;;;5073902;28;20444;-73
2023/03/09 00:44:09;;;;;;;10.10;6.60;;;;;;;;;;5078120;28;20460;-72
2023/03/09 00:46:37;;;;;;;9.97;7.10;;;;;;;;;;5077708;28;20833;-74
2023/03/09 00:49:06;;;;;;;13.40;8.03;;;;;;;;;;5076979;28;20464;-73
2023/03/09 00:51:36;;;;;;;13.03;7.53;;;;;;;;;;5077167;28;20484;-72
2023/03/09 00:54:04;;;;;;;9.30;6.40;;;;;;;;;;5077366;28;20452;-73
2023/03/09 00:56:31;;;;;;;11.07;7.27;;;;;;;;;;5082704;28;20535;-73
2023/03/09 00:59:00;;;;;;;11.40;6.47;;;;;;;;;;5080520;28;20525;-72
2023/03/09 01:01:28;;;;;;;14.77;6.30;;;;;;;;;;5083203;28;20467;-72
2023/03/09 01:03:55;;;;;;;11.20;6.00;;;;;;;;;;5081645;28;20471;-73
2023/03/09 01:06:23;;;;;;;14.37;7.90;;;;;;;;;;5080811;28;20523;-72
2023/03/09 01:08:53;;;;;;;10.60;6.80;;;;;;;;;;5080657;28;20845;-73
2023/03/09 01:11:20;;;;;;;12.80;5.97;;;;;;;;;;5081806;28;20492;-73
2023/03/09 01:13:56;;;;;;;9.07;6.20;;;;;;;;;;5081916;28;20808;-73
2023/03/09 01:16:24;;;;;;;8.70;5.50;;;;;;;;;;5082036;28;20539;-73
2023/03/09 01:18:56;;;;;;;11.67;6.10;;;;;;;;;;5081932;28;20733;-73
2023/03/09 01:21:24;;;;;;;11.40;6.03;;;;;;;;;;5080824;28;20456;-73
2023/03/09 01:23:53;;;;;;;9.90;6.70;;;;;;;;;;5082320;28;20857;-73
2023/03/09 01:26:20;;;;;;;8.73;5.13;;;;;;;;;;5080751;28;20464;-73
2023/03/09 01:28:48;;;;;;;8.57;5.20;;;;;;;;;;5082205;28;20456;-73
2023/03/09 01:31:16;;;;;;;9.70;6.20;;;;;;;;;;5080866;28;20481;-73
2023/03/09 01:33:44;;;;;;;8.90;5.80;;;;;;;;;;5083773;28;20456;-73
2023/03/09 01:36:14;;;;;;;9.40;5.13;;;;;;;;;;5081098;28;20459;-73
2023/03/09 01:38:47;;;;;;;9.30;5.30;;;;;;;;;;5082363;28;20460;-72
2023/03/09 01:41:20;;;;;;;7.27;4.47;;;;;;;;;;5082336;28;20444;-72
2023/03/09 01:43:49;;;;;;;10.43;5.47;;;;;;;;;;5081843;28;20480;-72
2023/03/09 01:46:44;;;;;;;8.93;5.07;;;;;;;;;;5082078;28;20445;-74
2023/03/09 01:49:15;;;;;;;7.20;4.60;;;;;;;;;;5037310;28;20456;-72
2023/03/09 01:51:45;;;;;;;7.30;4.67;;;;;;;;;;5101772;28;20556;-73
2023/03/09 01:54:15;;;;;;;7.13;4.90;;;;;;;;;;5102042;28;20463;-73
2023/03/09 01:56:46;;;;;;;8.13;4.90;;;;;;;;;;5101129;28;20451;-73
2023/03/09 01:59:39;;;;;;;9.40;5.20;;;;;;;;;;5102567;28;20941;-73
2023/03/09 02:02:08;;;;;;;8.80;4.40;;;;;;;;;;5086743;28;20452;-73
2023/03/09 02:04:38;;;;;;;8.87;4.90;;;;;;;;;;5084150;28;20460;-73
2023/03/09 02:07:06;;;;;;;6.97;5.10;;;;;;;;;;5082282;28;20452;-73
2023/03/09 02:09:39;;;;;;;6.93;3.80;;;;;;;;;;5084384;28;20524;-73
2023/03/09 02:12:22;;;;;;;7.47;4.50;;;;;;;;;;5081277;28;20485;-74
2023/03/09 02:15:02;;;;;;;8.07;5.40;;;;;;;;;;5083519;28;20860;-73
2023/03/09 02:17:30;;;;;;;8.03;4.70;;;;;;;;;;5082287;28;20456;-72
2023/03/09 02:20:08;;;;;;;10.20;5.20;;;;;;;;;;5082837;28;20491;-73
2023/03/09 02:22:53;;;;;;;8.70;5.60;;;;;;;;;;5081319;28;20459;-73
2023/03/09 02:25:27;;;;;;;8.00;4.47;;;;;;;;;;5102494;28;20706;-73
2023/03/09 02:28:03;;;;;;;7.20;4.13;;;;;;;;;;5101968;28;20858;-73
2023/03/09 02:30:32;;;;;;;7.30;4.80;;;;;;;;;;5103777;28;20461;-73
2023/03/09 02:39:46;;;;;;;8.63;4.00;;;;;;;;;;5021809;28;20866;-75
2023/03/09 02:42:31;;;;;;;5.73;3.93;;;;;;;;;;5017845;28;20451;-74
2023/03/09 02:45:44;;;;;;;14.67;5.30;;;;;;;;;;5022071;28;20941;-74
2023/03/09 02:54:33;;;;;;;5.37;3.80;;;;;;;;;;5000556;28;20467;-74
2023/03/09 02:57:10;;;;;;;10.30;4.50;;;;;;;;;;5017756;28;20497;-74
2023/03/09 02:59:46;;;;;;;9.30;4.10;;;;;;;;;;5022389;28;20482;-74
2023/03/09 03:05:22;;;;;;;;;;;;;;;;;;;;;
2023/03/09 03:07:53;;;;;;;6.27;4.30;;;;;;;;;;5081052;28;20531;-73
2023/03/09 03:10:25;;;;;;;6.23;4.43;;;;;;;;;;5081386;28;20496;-73
2023/03/09 03:13:07;;;;;;;8.03;4.10;;;;;;;;;;5084326;28;20498;-73
2023/03/09 03:15:43;;;;;;;5.67;4.07;;;;;;;;;;5093467;28;20939;-73
2023/03/09 03:18:18;;;;;;;5.07;3.53;;;;;;;;;;5104426;28;20446;-73
2023/03/09 03:20:48;;;;;;;4.80;3.33;;;;;;;;;;5103049;28;20455;-72
2023/03/09 03:26:24;;;;;;;4.53;2.80;;;;;;;;;;5092923;28;20458;-73
2023/03/09 03:28:57;;;;;;;7.13;3.87;;;;;;;;;;5103227;28;20524;-73
2023/03/09 03:31:25;;;;;;;7.90;3.80;;;;;;;;;;5101652;28;20999;-74
2023/03/09 03:33:53;;;;;;;8.13;3.97;;;;;;;;;;5102744;28;20467;-73
2023/03/09 03:36:22;;;;;;;6.90;4.30;;;;;;;;;;5104471;28;20451;-73
2023/03/09 03:38:50;;;;;;;6.30;3.37;;;;;;;;;;5102206;28;20462;-72
2023/03/09 03:41:20;;;;;;;6.50;4.10;;;;;;;;;;5102913;28;20456;-73
2023/03/09 03:43:55;;;;;;;6.43;4.90;;;;;;;;;;5104283;28;20895;-72
2023/03/09 03:46:35;;;;;;;7.47;4.27;;;;;;;;;;5102721;28;20479;-74
2023/03/09 03:49:06;;;;;;;6.20;3.80;;;;;;;;;;5075005;28;20460;-73
2023/03/09 03:51:57;;;;;;;5.30;3.90;;;;;;;;;;5081881;28;20472;-73
2023/03/09 03:54:43;;;;;;;4.90;3.03;;;;;;;;;;5082948;28;20449;-73
2023/03/09 03:57:28;;;;;;;5.10;3.50;;;;;;;;;;5080279;28;20480;-73
2023/03/09 04:00:03;;;;;;;9.93;4.30;;;;;;;;;;5080810;28;20444;-73
2023/03/09 04:02:34;;;;;;;9.00;5.00;;;;;;;;;;5078830;28;20440;-73
2023/03/09 04:05:13;;;;;;;7.23;3.80;;;;;;;;;;5082609;28;20444;-73
2023/03/09 04:07:58;;;;;;;6.10;3.80;;;;;;;;;;5091669;28;20465;-73
2023/03/09 04:10:26;;;;;;;6.63;4.13;;;;;;;;;;5103854;28;20496;-73
2023/03/09 04:13:09;;;;;;;8.13;4.10;;;;;;;;;;5103350;28;20498;-73
2023/03/09 04:15:51;;;;;;;8.40;4.80;;;;;;;;;;5101537;28;20475;-74
2023/03/09 04:18:22;;;;;;;7.43;4.50;;;;;;;;;;5103056;28;20862;-72
2023/03/09 04:20:59;;;;;;;7.27;4.90;;;;;;;;;;5102093;28;20463;-73
2023/03/09 04:23:30;;;;;;;12.13;4.77;;;;;;;;;;5100207;28;20450;-73
2023/03/09 04:25:58;;;;;;;9.30;4.90;;;;;;;;;;5081621;28;20464;-73
2023/03/09 04:28:33;;;;;;;8.60;4.67;;;;;;;;;;5082522;28;20453;-72
2023/03/09 04:31:04;;;;;;;7.90;5.07;;;;;;;;;;5084266;28;20486;-73
2023/03/09 04:33:32;;;;;;;14.47;5.47;;;;;;;;;;5083683;28;20491;-73
2023/03/09 04:36:00;;;;;;;9.10;5.63;;;;;;;;;;5081999;28;20879;-72
2023/03/09 04:38:27;;;;;;;9.07;4.33;;;;;;;;;;5082947;28;20732;-72
2023/03/09 04:40:55;;;;;;;10.17;5.63;;;;;;;;;;5081930;28;20490;-73
2023/03/09 04:43:24;;;;;;;11.53;6.43;;;;;;;;;;5080701;28;20471;-74
2023/03/09 04:45:53;;;;;;;10.63;6.07;;;;;;;;;;5082269;28;20505;-73
2023/03/09 04:48:21;;;;;;;7.17;4.90;;;;;;;;;;5081506;28;20448;-73
2023/03/09 04:54:08;;;;;;;9.33;5.87;;;;;;;;;;5063845;28;20496;-73
2023/03/09 05:00:11;;;;;;;10.10;6.20;;;;;;;;;;5062213;28;20452;-73
2023/03/09 05:02:53;;;;;;;11.80;6.00;;;;;;;;;;5084348;28;20452;-74
2023/03/09 05:06:02;;;;;;;8.47;5.63;;;;;;;;;;5079001;28;20440;-74
2023/03/09 05:12:05;;;;;;;;;;;;;;;;;;;;;
2023/03/09 05:23:31;;;;;;;12.30;6.23;;;;;;;;;;5043020;28;20478;-74
2023/03/09 05:32:28;;;;;;;10.03;6.43;;;;;;;;;;4926551;29;20480;-74
2023/03/09 05:35:19;;;;;;;11.93;7.50;;;;;;;;;;4926745;29;20474;-74
2023/03/09 05:41:08;;;;;;;12.13;6.43;;;;;;;;;;5024239;28;20529;-73
2023/03/09 05:43:41;;;;;;;10.23;6.47;;;;;;;;;;5064570;28;20520;-73
2023/03/09 05:49:36;;;;;;;11.43;7.63;;;;;;;;;;5064376;28;20408;-74
2023/03/09 05:52:41;;;;;;;9.73;6.90;;;;;;;;;;5079219;28;20836;-74
2023/03/09 05:55:31;;;;;;;10.00;6.27;;;;;;;;;;5079864;28;20464;-73
2023/03/09 06:01:15;;;;;;;11.03;6.93;;;;;;;;;;5060347;28;20442;-73
2023/03/09 06:04:10;;;;;;;12.53;7.53;;;;;;;;;;5062857;28;20477;-73
2023/03/09 06:34:00;;;;;;;12.20;7.13;;;;;;;;;;5058302;28;20573;-73
2023/03/09 06:45:56;;;;;;;9.97;6.13;;;;;;;;;;5072028;28;20451;-74
2023/03/09 06:57:58;;;;;;;12.87;7.37;;;;;;;;;;5073748;28;20474;-74
2023/03/09 07:06:47;;;;;;;13.33;7.80;;;;;;;;;;5056045;28;20876;-74
2023/03/09 07:09:34;;;;;;;11.30;7.07;;;;;;;;;;5081055;28;20460;-73
2023/03/09 07:12:19;;;;;;;13.97;7.73;;;;;;;;;;5081033;28;20464;-74
2023/03/09 07:14:49;;;;;;;13.90;8.03;;;;;;;;;;5078195;28;20467;-73
2023/03/09 07:20:12;;;;;;;11.30;7.73;;;;;;;;;;5077997;28;20413;-72
2023/03/09 07:22:44;;;;;;;36.20;16.43;;;;;;;;;;5075903;28;20820;-73
2023/03/09 07:25:17;;;;;;;17.50;9.97;;;;;;;;;;5060118;28;20469;-73
2023/03/09 07:27:48;;;;;;;12.97;9.40;;;;;;;;;;5058935;28;20487;-74
2023/03/09 07:30:20;;;;;;;13.37;9.30;;;;;;;;;;5056699;28;20461;-74
2023/03/09 07:32:48;;;;;;;14.47;7.20;;;;;;;;;;5057348;28;20473;-72
2023/03/09 07:35:19;;;;;;;14.40;8.57;;;;;;;;;;5056712;28;20481;-73
2023/03/09 07:37:49;;;;;;;22.50;9.30;;;;;;;;;;5058032;28;20524;-72
2023/03/09 07:40:22;;;;;;;16.23;9.57;;;;;;;;;;5057177;28;20449;-74
2023/03/09 07:42:52;;;;;;;15.60;8.50;;;;;;;;;;5058696;28;20461;-74
2023/03/09 07:45:22;;;;;;;14.30;8.40;;;;;;;;;;5056609;28;20470;-73
2023/03/09 07:47:51;;;;;;;12.83;7.90;;;;;;;;;;5057306;28;20457;-74
2023/03/09 07:50:23;;;;;;;15.67;9.50;;;;;;;;;;5059728;28;20839;-74
2023/03/09 07:52:50;;;;;;;12.13;8.20;;;;;;;;;;5073796;28;20480;-73
2023/03/09 07:55:22;;;;;;;16.57;10.67;;;;;;;;;;5072342;28;20448;-72
2023/03/09 07:58:05;;;;;;;20.13;11.50;;;;;;;;;;5058340;28;20479;-71
2023/03/09 08:00:36;;;;;;;13.13;9.00;;;;;;;;;;5075029;28;20460;-73
2023/03/09 08:03:04;;;;;;;19.23;9.20;;;;;;;;;;5078523;28;20453;-73
2023/03/09 08:05:34;;;;;;;16.00;9.90;;;;;;;;;;5082067;28;20448;-73
2023/03/09 08:08:05;;;;;;;13.80;8.90;;;;;;;;;;5082323;28;20468;-73
2023/03/09 08:10:34;;;;;;;17.00;9.00;;;;;;;;;;5065054;28;20449;-73
2023/03/09 08:13:04;;;;;;;13.80;9.10;;;;;;;;;;5083314;28;20876;-73
2023/03/09 08:15:32;;;;;;;14.00;9.20;;;;;;;;;;5080644;28;20452;-73
2023/03/09 08:18:01;;;;;;;12.43;8.17;;;;;;;;;;5081530;28;20444;-72
2023/03/09 08:20:29;;;;;;;16.10;10.77;;;;;;;;;;5082467;28;20904;-73
2023/03/09 08:22:58;;;;;;;15.23;10.43;;;;;;;;;;5080641;28;20448;-72
2023/03/09 08:25:26;;;;;;;17.30;9.30;;;;;;;;;;5083930;28;20456;-73
2023/03/09 08:28:04;;;;;;;20.20;11.37;;;;;;;;;;5080043;28;20457;-73
2023/03/09 08:30:33;;;;;;;15.40;9.30;;;;;;;;;;5083392;28;20805;-72
2023/03/09 08:33:02;;;;;;;19.33;11.03;;;;;;;;;;5077559;28;20773;-74
2023/03/09 08:35:32;;;;;;;16.90;11.10;;;;;;;;;;5068298;28;20452;-73
2023/03/09 08:38:10;;;;;;;16.97;10.30;;;;;;;;;;5079031;28;20918;-72
2023/03/09 08:40:41;;;;;;;16.20;10.00;;;;;;;;;;5079291;28;20928;-72
2023/03/09 08:43:28;;;;;;;13.70;9.43;;;;;;;;;;5075020;28;20937;-73
2023/03/09 08:45:56;;;;;;;15.37;9.33;;;;;;;;;;5071294;28;20938;-73
2023/03/09 08:48:25;;;;;;;17.37;10.97;;;;;;;;;;5080251;28;20847;-72
2023/03/09 08:50:56;;;;;;;20.13;11.87;;;;;;;;;;5081229;28;20468;-73
2023/03/09 08:53:57;;;;;;;16.37;10.20;;;;;;;;;;5074802;28;20493;-74
2023/03/09 08:56:31;;;;;;;13.53;8.83;;;;;;;;;;5082353;28;20468;-73
2023/03/09 08:58:59;;;;;;;16.60;9.43;;;;;;;;;;5081816;28;20445;-73
2023/03/09 09:01:28;;;;;;;15.83;7.87;;;;;;;;;;5083662;28;20448;-72
2023/03/09 09:03:58;;;;;;;15.40;7.77;;;;;;;;;;5080093;28;20460;-73
2023/03/09 09:06:26;;;;;;;12.73;8.57;;;;;;;;;;5082998;28;20471;-73
2023/03/09 09:08:55;;;;;;;11.87;7.30;;;;;;;;;;5078322;28;20471;-73
2023/03/09 09:11:24;;;;;;;14.30;7.80;;;;;;;;;;5078808;28;20510;-73
2023/03/09 09:13:54;;;;;;;8.90;6.17;;;;;;;;;;5078941;28;20494;-73
2023/03/09 09:16:22;;;;;;;13.37;6.37;;;;;;;;;;5077637;28;20855;-73
2023/03/09 09:18:55;;;;;;;11.67;7.10;;;;;;;;;;5080252;28;20460;-72
2023/03/09 09:21:27;;;;;;;12.07;6.67;;;;;;;;;;5075964;28;20456;-73
2023/03/09 09:23:57;;;;;;;10.83;6.83;;;;;;;;;;5077995;28;20472;-73
2023/03/09 09:26:28;;;;;;;13.40;6.97;;;;;;;;;;5082737;28;20460;-73
2023/03/09 09:32:04;;;;;;;11.20;7.17;;;;;;;;;;5083180;28;20535;-73
2023/03/09 09:34:33;;;;;;;10.90;7.40;;;;;;;;;;5063391;28;20580;-72
2023/03/09 09:37:15;;;;;;;13.30;7.17;;;;;;;;;;5089385;28;20468;-72
2023/03/09 09:39:44;;;;;;;9.87;6.10;;;;;;;;;;5100966;28;20532;-73
2023/03/09 09:42:14;;;;;;;11.67;6.30;;;;;;;;;;5100109;28;20479;-72
2023/03/09 09:44:47;;;;;;;9.47;6.53;;;;;;;;;;5065821;28;20967;-74
2023/03/09 09:47:23;;;;;;;11.40;6.30;;;;;;;;;;5069300;28;20466;-74
2023/03/09 09:49:52;;;;;;;11.03;7.47;;;;;;;;;;5080115;28;20467;-73
2023/03/09 09:52:28;;;;;;;10.00;6.73;;;;;;;;;;5091297;28;20471;-73
2023/03/09 09:55:12;;;;;;;12.33;7.47;;;;;;;;;;5072540;28;20484;-74
2023/03/09 09:57:51;;;;;;;10.70;6.80;;;;;;;;;;5076555;28;20544;-74
2023/03/09 10:00:21;;;;;;;12.43;7.47;;;;;;;;;;5079097;28;21070;-73
2023/03/09 10:03:10;;;;;;;9.73;5.00;;;;;;;;;;5077882;28;20459;-74
2023/03/09 10:05:43;;;;;;;8.67;5.27;;;;;;;;;;5059814;28;20462;-73
2023/03/09 10:08:37;;;;;;;8.80;5.03;;;;;;;;;;5068953;28;20453;-72
2023/03/09 10:11:08;;;;;;;7.73;4.87;;;;;;;;;;5078347;28;20448;-73
2023/03/09 10:13:37;;;;;;;8.20;4.90;;;;;;;;;;5078094;28;20488;-72
2023/03/09 10:16:08;;;;;;;11.37;7.07;;;;;;;;;;5076754;28;20517;-73
2023/03/09 10:18:39;;;;;;;10.27;6.40;;;;;;;;;;5079127;28;20468;-73
2023/03/09 10:21:15;;;;;;;9.37;5.93;;;;;;;;;;5078262;28;21175;-73
2023/03/09 10:23:46;;;;;;;9.10;6.17;;;;;;;;;;5078184;28;21057;-73
2023/03/09 10:26:33;;;;;;;9.40;6.40;;;;;;;;;;5072924;28;20456;-74
2023/03/09 10:29:03;;;;;;;11.63;7.40;;;;;;;;;;5073837;28;20453;-73
2023/03/09 10:31:49;;;;;;;10.43;6.63;;;;;;;;;;5075081;28;20456;-72
2023/03/09 10:34:20;;;;;;;11.40;6.60;;;;;;;;;;5074395;28;20941;-73
2023/03/09 10:36:59;;;;;;;12.70;6.13;;;;;;;;;;5075971;28;20468;-73
2023/03/09 10:39:35;;;;;;;10.73;5.73;;;;;;;;;;5076904;28;20448;-72
2023/03/09 10:42:13;;;;;;;7.97;5.00;;;;;;;;;;5074780;28;20517;-73
2023/03/09 10:44:51;;;;;;;12.30;6.67;;;;;;;;;;5077157;28;20468;-72
2023/03/09 10:47:20;;;;;;;10.23;6.87;;;;;;;;;;5076148;28;20483;-73
2023/03/09 10:50:11;;;;;;;12.13;6.30;;;;;;;;;;5077605;28;20440;-73
2023/03/09 10:52:40;;;;;;;9.27;5.67;;;;;;;;;;5073255;28;20484;-73
2023/03/09 10:55:27;;;;;;;8.80;5.90;;;;;;;;;;5072910;28;20484;-72
2023/03/09 10:58:09;;;;;;;9.30;6.33;;;;;;;;;;5078061;28;20460;-73
2023/03/09 11:00:40;;;;;;;20.97;15.23;;;;;;;;;;5077943;28;20467;-75
2023/03/09 11:03:20;;;;;;;8.43;6.07;;;;;;;;;;5080882;28;20476;-73
2023/03/09 11:05:51;;;;;;;11.03;7.43;;;;;;;;;;5073411;28;20771;-73
2023/03/09 11:08:26;;;;;;;9.63;6.63;;;;;;;;;;5080681;28;20696;-73
2023/03/09 11:11:07;;;;;;;11.90;7.53;;;;;;;;;;5078324;28;20523;-74
2023/03/09 11:13:39;;;;;;;11.87;6.70;;;;;;;;;;5061524;28;20541;-73
2023/03/09 11:16:14;;;;;;;9.90;6.00;;;;;;;;;;5064841;28;20479;-73
2023/03/09 11:18:43;;;;;;;14.00;5.73;;;;;;;;;;5076370;28;20512;-72
2023/03/09 11:21:11;;;;;;;8.50;6.17;;;;;;;;;;5070238;28;20571;-72
2023/03/09 11:23:51;;;;;;;6.63;4.20;;;;;;;;;;5079116;28;20456;-73
2023/03/09 11:26:23;;;;;;;7.90;5.03;;;;;;;;;;5095239;28;20525;-73
2023/03/09 11:28:59;;;;;;;6.97;4.63;;;;;;;;;;5068679;28;20866;-73
2023/03/09 11:31:36;;;;;;;4.23;3.63;;;;;;;;;;5058769;28;20464;-74
2023/03/09 11:34:07;;;;;;;6.50;4.43;;;;;;;;;;5060259;28;20480;-72
2023/03/09 11:36:52;;;;;;;7.57;4.73;;;;;;;;;;5058273;28;20550;-72
2023/03/09 11:39:21;;;;;;;7.40;4.77;;;;;;;;;;5068609;28;20453;-71
2023/03/09 11:41:51;;;;;;;5.57;4.27;;;;;;;;;;5077168;28;20461;-72
2023/03/09 11:44:43;;;;;;;7.50;4.20;;;;;;;;;;5068416;28;21195;-73
2023/03/09 11:47:22;;;;;;;8.80;4.87;;;;;;;;;;5059259;28;20453;-73
2023/03/09 11:49:51;;;;;;;5.73;4.70;;;;;;;;;;5057750;28;20457;-72
2023/03/09 11:52:21;;;;;;;10.87;5.83;;;;;;;;;;5060176;28;20449;-72
2023/03/09 11:55:00;;;;;;;24.50;13.47;;;;;;;;;;5057382;28;20759;-72
2023/03/09 11:57:30;;;;;;;8.70;5.80;;;;;;;;;;5064186;28;20475;-73
2023/03/09 12:00:05;;;;;;;6.73;5.10;;;;;;;;;;5078673;28;20476;-71
2023/03/09 12:02:54;;;;;;;19.83;12.93;;;;;;;;;;5077252;28;20456;-73
2023/03/09 12:05:28;;;;;;;15.43;10.90;;;;;;;;;;5073915;28;20457;-72
2023/03/09 12:08:08;;;;;;;12.47;6.67;;;;;;;;;;5059009;28;20463;-72
2023/03/09 12:10:40;;;;;;;10.50;6.50;;;;;;;;;;5079505;28;20546;-72
2023/03/09 12:13:26;;;;;;;14.70;7.47;;;;;;;;;;5076736;28;20755;-72
2023/03/09 12:15:59;;;;;;;11.13;7.33;;;;;;;;;;5078429;28;20452;-72
2023/03/09 12:18:29;;;;;;;7.97;5.00;;;;;;;;;;5075174;28;20456;-72
2023/03/09 12:21:00;;;;;;;9.90;5.40;;;;;;;;;;5076007;28;20509;-72
2023/03/09 12:29:41;;;;;;;9.50;5.13;;;;;;;;;;5086801;28;20872;-72
2023/03/09 12:32:31;;;;;;;9.60;5.93;;;;;;;;;;5096019;28;20455;-73
2023/03/09 12:35:14;;;;;;;7.57;5.23;;;;;;;;;;5087293;28;20953;-73
2023/03/09 12:38:00;;;;;;;6.40;4.80;;;;;;;;;;5095076;28;20472;-71
2023/03/09 12:40:50;;;;;;;9.17;6.17;;;;;;;;;;5079302;28;20437;-73
2023/03/09 12:43:37;;;;;;;6.60;4.70;;;;;;;;;;5077557;28;20547;-74
2023/03/09 12:46:35;;;;;;;10.97;6.60;;;;;;;;;;5055220;28;20445;-73
2023/03/09 12:49:03;;;;;;;7.83;5.43;;;;;;;;;;4974906;28;20532;-72
2023/03/09 12:51:40;;;;;;;9.10;5.20;;;;;;;;;;5058940;28;20484;-72
2023/03/09 12:54:22;;;;;;;12.17;8.10;;;;;;;;;;5059027;28;20503;-72
2023/03/09 12:56:53;;;;;;;7.93;5.50;;;;;;;;;;5075274;28;20448;-72
2023/03/09 12:59:25;;;;;;;9.30;6.53;;;;;;;;;;5077797;28;20449;-73
2023/03/09 13:01:54;;;;;;;8.63;5.93;;;;;;;;;;5077972;28;20507;-74
2023/03/09 13:04:30;;;;;;;10.67;6.53;;;;;;;;;;5079441;28;20468;-73
2023/03/09 13:07:08;;;;;;;9.33;6.27;;;;;;;;;;5077976;28;20543;-73
2023/03/09 13:09:48;;;;;;;8.20;4.87;;;;;;;;;;5070644;28;20445;-72
2023/03/09 13:12:51;;;;;;;16.97;11.20;;;;;;;;;;5068501;28;20904;-73
2023/03/09 13:18:44;;;;;;;16.80;9.23;;;;;;;;;;5070471;28;20952;-73
2023/03/09 13:21:31;;;;;;;8.13;6.53;;;;;;;;;;5067596;28;20563;-73
2023/03/09 13:24:08;;;;;;;10.80;7.33;;;;;;;;;;5067975;28;21041;-74
2023/03/09 13:26:47;;;;;;;9.73;6.43;;;;;;;;;;5077036;28;21032;-73
2023/03/09 13:29:26;;;;;;;12.07;6.63;;;;;;;;;;5076775;28;20444;-73
2023/03/09 13:31:57;;;;;;;14.03;7.57;;;;;;;;;;5078824;28;20456;-74
2023/03/09 13:34:27;;;;;;;9.17;6.63;;;;;;;;;;5072240;28;20552;-73
2023/03/09 13:37:05;;;;;;;7.50;5.53;;;;;;;;;;5076711;28;20496;-75
2023/03/09 13:39:34;;;;;;;10.23;6.03;;;;;;;;;;5077071;28;20457;-74
2023/03/09 13:42:05;;;;;;;10.93;7.30;;;;;;;;;;5078620;28;20464;-74
2023/03/09 13:44:36;;;;;;;12.50;6.40;;;;;;;;;;5080398;28;20542;-73
2023/03/09 13:47:06;;;;;;;10.07;5.97;;;;;;;;;;5078424;28;20464;-73
2023/03/09 13:49:35;;;;;;;9.90;6.53;;;;;;;;;;5082185;28;20455;-73
2023/03/09 13:52:08;;;;;;;8.87;6.57;;;;;;;;;;5078674;28;20464;-73
2023/03/09 13:54:40;;;;;;;20.23;12.23;;;;;;;;;;5079107;28;20490;-74
2023/03/09 13:57:22;;;;;;;10.70;6.37;;;;;;;;;;5076224;28;20476;-74
2023/03/09 14:00:03;;;;;;;16.20;10.17;;;;;;;;;;5076347;28;20445;-73
2023/03/09 14:02:53;;;;;;;11.13;6.93;;;;;;;;;;5076491;28;20467;-74
2023/03/09 14:05:24;;;;;;;11.10;7.30;;;;;;;;;;5076206;28;20872;-72
2023/03/09 14:07:53;;;;;;;10.63;7.10;;;;;;;;;;5079436;28;20840;-73
2023/03/09 14:10:23;;;;;;;9.40;6.40;;;;;;;;;;5077615;28;20448;-73
2023/03/09 14:12:53;;;;;;;9.73;6.73;;;;;;;;;;5077256;28;20779;-73
2023/03/09 14:15:33;;;;;;;11.83;6.87;;;;;;;;;;5075588;28;20839;-73
2023/03/09 14:18:21;;;;;;;11.43;6.70;;;;;;;;;;5076054;28;20514;-73
2023/03/09 14:20:57;;;;;;;10.80;6.93;;;;;;;;;;5074299;28;20445;-73
2023/03/09 14:23:38;;;;;;;10.17;7.10;;;;;;;;;;5078353;28;20453;-72
2023/03/09 14:26:07;;;;;;;14.60;8.67;;;;;;;;;;5075766;28;20448;-73
2023/03/09 14:28:40;;;;;;;11.93;7.30;;;;;;;;;;5076495;28;20464;-73
2023/03/09 14:31:21;;;;;;;12.07;7.50;;;;;;;;;;5074930;28;20452;-72
2023/03/09 14:33:58;;;;;;;15.20;9.37;;;;;;;;;;5076399;28;20445;-73
2023/03/09 14:36:30;;;;;;;13.17;9.27;;;;;;;;;;5075431;28;20479;-72
2023/03/09 14:39:33;;;;;;;13.50;9.03;;;;;;;;;;5077196;28;20751;-73
2023/03/09 14:42:31;;;;;;;13.23;8.43;;;;;;;;;;5074643;28;20464;-73
2023/03/09 14:45:24;;;;;;;11.93;8.67;;;;;;;;;;5079336;28;20440;-72
2023/03/09 14:47:58;;;;;;;12.27;8.57;;;;;;;;;;5074264;28;20468;-71
2023/03/09 14:53:55;;;;;;;13.73;8.60;;;;;;;;;;5062867;28;20464;-72
2023/03/09 14:56:26;;;;;;;16.00;8.90;;;;;;;;;;5078476;28;20477;-73
2023/03/09 14:59:06;;;;;;;12.80;8.80;;;;;;;;;;5068866;28;20480;-72
2023/03/09 15:01:56;;;;;;;12.73;7.73;;;;;;;;;;5074809;28;20472;-71
2023/03/09 15:04:44;;;;;;;13.67;8.60;;;;;;;;;;5074610;28;20483;-72
2023/03/09 15:07:30;;;;;;;12.37;8.30;;;;;;;;;;5076437;28;20481;-73
2023/03/09 15:09:59;;;;;;;18.13;10.70;;;;;;;;;;5078576;28;20453;-72
2023/03/09 15:12:37;;;;;;;16.10;10.03;;;;;;;;;;5073250;28;20515;-72
2023/03/09 15:15:25;;;;;;;14.87;8.87;;;;;;;;;;5071336;28;20472;-72
2023/03/09 15:17:56;;;;;;;13.80;8.87;;;;;;;;;;5078320;28;20526;-73
2023/03/09 15:20:30;;;;;;;18.50;9.97;;;;;;;;;;5077823;28;20495;-71
2023/03/09 15:22:58;;;;;;;15.23;10.37;;;;;;;;;;5076477;28;20535;-71
2023/03/09 15:25:41;;;;;;;14.77;10.00;;;;;;;;;;5078811;28;20736;-73
2023/03/09 15:28:12;;;;;;;14.57;9.87;;;;;;;;;;5006621;28;20465;-73
2023/03/09 15:31:00;;;;;;;13.73;9.83;;;;;;;;;;5064288;28;20623;-72
2023/03/09 15:33:39;;;;;;;16.20;10.37;;;;;;;;;;5073744;28;20452;-72
2023/03/09 15:36:11;;;;;;;14.23;10.27;;;;;;;;;;5074917;28;20494;-71
2023/03/09 15:38:41;;;;;;;17.73;10.03;;;;;;;;;;5074257;28;20460;-71
2023/03/09 15:41:09;;;;;;;17.47;10.50;;;;;;;;;;5076193;28;20449;-72
2023/03/09 15:43:42;;;;;;;21.20;12.43;;;;;;;;;;5077198;28;20502;-72
2023/03/09 15:46:10;;;;;;;18.37;11.13;;;;;;;;;;5073622;28;20440;-72
2023/03/09 15:48:40;;;;;;;13.50;8.60;;;;;;;;;;5075173;28;20708;-73
2023/03/09 15:51:18;;;;;;;17.30;10.73;;;;;;;;;;5074044;28;20535;-73
2023/03/09 15:53:56;;;;;;;16.67;10.97;;;;;;;;;;5070027;28;20468;-73
2023/03/09 15:56:24;;;;;;;15.07;9.73;;;;;;;;;;5072844;28;20919;-73
2023/03/09 15:58:52;;;;;;;16.73;11.10;;;;;;;;;;5072939;28;20460;-72
2023/03/09 16:01:22;;;;;;;18.03;12.50;;;;;;;;;;5071341;28;20875;-71
2023/03/09 16:03:58;;;;;;;15.50;9.77;;;;;;;;;;5072727;28;20470;-72
2023/03/09 16:06:36;;;;;;;17.53;11.27;;;;;;;;;;5072013;28;20480;-71
2023/03/09 16:09:08;;;;;;;19.30;12.33;;;;;;;;;;5072584;28;20453;-73
2023/03/09 16:11:42;;;;;;;21.03;12.00;;;;;;;;;;5075648;28;20510;-72
2023/03/09 16:14:10;;;;;;;15.07;10.80;;;;;;;;;;5073264;28;21204;-71
2023/03/09 16:16:45;;;;;;;18.37;11.50;;;;;;;;;;5060772;28;20480;-72
2023/03/09 16:19:13;;;;;;;15.80;10.80;;;;;;;;;;5068006;28;20448;-71
2023/03/09 16:21:42;;;;;;;18.33;11.53;;;;;;;;;;5075842;28;20499;-72
2023/03/09 16:24:12;;;;;;;22.00;12.07;;;;;;;;;;5074363;28;20460;-72
2023/03/09 16:26:39;;;;;;;19.87;12.10;;;;;;;;;;5079529;28;20472;-72
2023/03/09 16:29:08;;;;;;;19.17;11.93;;;;;;;;;;5065502;28;20555;-72
2023/03/09 16:31:41;;;;;;;18.37;12.27;;;;;;;;;;5066597;28;20556;-71
2023/03/09 16:34:22;;;;;;;17.13;11.63;;;;;;;;;;5057888;28;20464;-72
2023/03/09 16:36:58;;;;;;;21.27;12.07;;;;;;;;;;5065976;28;20526;-71
2023/03/09 16:39:31;;;;;;;21.60;13.53;;;;;;;;;;5078091;28;20931;-72
2023/03/09 16:42:04;;;;;;;19.73;12.83;;;;;;;;;;5058293;28;20456;-72
2023/03/09 16:44:54;;;;;;;18.97;11.93;;;;;;;;;;5069294;28;20460;-72
2023/03/09 16:47:30;;;;;;;18.80;12.37;;;;;;;;;;5073877;28;20853;-73
2023/03/09 16:50:08;;;;;;;17.17;12.00;;;;;;;;;;5055024;28;20566;-72
2023/03/09 16:52:38;;;;;;;19.10;11.70;;;;;;;;;;5078221;28;20511;-72
2023/03/09 16:55:08;;;;;;;21.43;11.07;;;;;;;;;;5078409;28;20891;-72
2023/03/09 16:57:42;;;;;;;19.03;11.87;;;;;;;;;;5078142;28;20519;-72
2023/03/09 17:00:22;;;;;;;20.17;13.17;;;;;;;;;;5080764;28;20494;-72
2023/03/09 17:02:52;;;;;;;20.67;12.80;;;;;;;;;;5077864;28;20460;-72
2023/03/09 17:05:23;;;;;;;19.20;12.57;;;;;;;;;;5080792;28;20869;-73
2023/03/09 17:07:56;;;;;;;21.37;12.43;;;;;;;;;;5059308;28;20875;-72
2023/03/09 17:10:38;;;;;;;20.80;13.93;;;;;;;;;;5063843;28;20778;-72
2023/03/09 17:13:08;;;;;;;19.23;13.90;;;;;;;;;;5079981;28;20459;-72
2023/03/09 17:15:38;;;;;;;19.00;12.40;;;;;;;;;;5081219;28;20512;-72
2023/03/09 17:18:33;;;;;;;17.63;12.67;;;;;;;;;;5082966;28;20460;-73
2023/03/09 17:21:01;;;;;;;22.27;13.47;;;;;;;;;;5084358;28;20460;-72
2023/03/09 17:23:56;;;;;;;27.07;13.50;;;;;;;;;;5082031;28;20444;-72